createdAt,value
2018-07-28T06:13:06.697Z,21.60
2018-07-28T06:15:36.367Z,22.60
2018-07-28T06:20:33.585Z,22.50
2018-07-28T06:23:02.108Z,22.50
2018-07-28T06:25:30.784Z,22.60
2018-07-28T06:27:59.327Z,22.50
2018-07-28T06:30:27.890Z,22.60
2018-07-28T06:32:57.505Z,22.70
2018-07-28T06:35:26.681Z,22.70
2018-07-28T06:37:55.214Z,22.80
2018-07-28T06:40:25.640Z,22.80
2018-07-28T06:42:54.134Z,22.80
2018-07-28T06:45:23.798Z,22.90
2018-07-28T06:50:20.705Z,23.00
2018-07-28T06:52:49.350Z,23.00
2018-07-28T06:55:18.714Z,23.10
2018-07-28T06:57:47.446Z,23.10
2018-07-28T07:00:16.149Z,23.10
2018-07-28T07:02:44.650Z,23.20
2018-07-28T07:05:13.463Z,23.20
2018-07-28T07:07:41.982Z,23.30
2018-07-28T07:10:10.773Z,23.30
2018-07-28T07:12:39.304Z,23.40
2018-07-28T07:15:08.514Z,23.50
2018-07-28T07:17:37.090Z,23.50
2018-07-28T07:20:06.337Z,23.50
2018-07-28T07:22:35.264Z,23.60
2018-07-28T07:25:04.375Z,23.70
2018-07-28T07:27:33.094Z,23.70
2018-07-28T07:30:02.696Z,23.70
2018-07-28T07:32:31.961Z,23.80
2018-07-28T07:35:00.690Z,23.80
2018-07-28T07:37:29.272Z,23.80
2018-07-28T07:39:59.297Z,23.90
2018-07-28T07:42:27.882Z,24.00
2018-07-28T07:44:57.217Z,24.00
2018-07-28T07:47:25.811Z,24.00
2018-07-28T07:49:55.115Z,24.10
2018-07-28T07:52:23.605Z,24.10
2018-07-28T07:54:52.311Z,24.10
2018-07-28T07:57:20.958Z,24.20
2018-07-28T07:59:49.691Z,24.20
2018-07-28T08:02:18.306Z,24.20
2018-07-28T08:04:47.092Z,24.30
2018-07-28T08:07:15.671Z,24.30
2018-07-28T08:09:44.342Z,24.40
2018-07-28T08:12:12.934Z,24.40
2018-07-28T08:14:41.647Z,24.50
2018-07-28T08:17:10.206Z,24.60
2018-07-28T08:19:38.911Z,24.60
2018-07-28T08:22:07.503Z,24.70
2018-07-28T08:24:36.207Z,24.80
2018-07-28T08:27:04.676Z,24.90
2018-07-28T08:29:33.168Z,24.90
2018-07-28T08:32:01.866Z,25.00
2018-07-28T08:34:30.507Z,25.00
2018-07-28T08:36:59.285Z,25.20
2018-07-28T08:39:27.760Z,25.20
2018-07-28T08:41:56.424Z,25.10
2018-07-28T08:44:24.926Z,25.10
2018-07-28T08:46:53.580Z,25.20
2018-07-28T08:49:22.196Z,25.20
2018-07-28T08:51:50.794Z,25.30
2018-07-28T08:54:19.268Z,25.40
2018-07-28T08:56:47.878Z,25.50
2018-07-28T08:59:16.373Z,25.40
2018-07-28T09:01:45.100Z,25.40
2018-07-28T09:04:13.624Z,25.40
2018-07-28T09:06:42.181Z,25.30
2018-07-28T09:09:11.375Z,25.40
2018-07-28T09:11:39.947Z,25.50
2018-07-28T09:14:09.083Z,25.70
2018-07-28T09:16:37.729Z,25.80
2018-07-28T09:19:06.387Z,25.80
2018-07-28T09:21:35.183Z,25.80
2018-07-28T09:24:03.730Z,25.70
2018-07-28T09:26:32.381Z,25.70
2018-07-28T09:29:01.134Z,25.80
2018-07-28T09:31:29.721Z,26.00
2018-07-28T09:33:58.354Z,26.10
2018-07-28T09:36:27.027Z,26.20
2018-07-28T09:38:55.559Z,26.30
2018-07-28T09:41:24.248Z,26.30
2018-07-28T09:43:52.753Z,26.30
2018-07-28T09:46:21.426Z,26.30
2018-07-28T09:48:50.128Z,26.10
2018-07-28T09:51:18.781Z,26.10
2018-07-28T09:53:47.272Z,26.30
2018-07-28T09:56:16.069Z,26.40
2018-07-28T09:58:44.521Z,26.50
2018-07-28T10:01:19.320Z,26.40
2018-07-28T10:03:48.190Z,26.40
2018-07-28T10:06:16.876Z,26.50
2018-07-28T10:08:45.870Z,26.70
2018-07-28T10:11:14.791Z,26.90
2018-07-28T10:13:43.293Z,27.00
2018-07-28T10:16:11.965Z,27.10
2018-07-28T10:18:40.508Z,27.30
2018-07-28T10:21:09.161Z,27.50
2018-07-28T10:23:37.632Z,27.70
2018-07-28T10:26:06.520Z,27.90
2018-07-28T10:28:35.081Z,28.10
2018-07-28T10:31:03.714Z,28.20
2018-07-28T10:33:32.206Z,28.50
2018-07-28T10:36:00.926Z,28.50
2018-07-28T10:38:29.435Z,28.60
2018-07-28T10:40:58.152Z,28.70
2018-07-28T10:43:26.636Z,28.40
2018-07-28T10:45:55.428Z,28.40
2018-07-28T10:48:23.926Z,28.60
2018-07-28T10:50:52.777Z,28.90
2018-07-28T10:53:21.348Z,29.00
2018-07-28T10:55:49.981Z,29.00
2018-07-28T11:00:46.922Z,29.30
2018-07-28T11:03:15.482Z,29.50
2018-07-28T11:05:44.119Z,29.60
2018-07-28T11:08:12.783Z,29.80
2018-07-28T11:10:41.483Z,29.80
2018-07-28T11:13:10.217Z,29.80
2018-07-28T11:15:38.909Z,29.90
2018-07-28T11:20:35.867Z,30.00
2018-07-28T11:23:04.491Z,29.80
2018-07-28T11:25:33.080Z,29.30
2018-07-28T11:28:01.751Z,29.30
2018-07-28T11:30:30.455Z,29.00
2018-07-28T11:33:10.055Z,28.90
2018-07-28T11:35:49.833Z,28.70
2018-07-28T11:38:29.560Z,29.10
2018-07-28T11:41:09.450Z,29.20
2018-07-28T11:43:49.085Z,28.90
2018-07-28T11:46:17.776Z,28.70
2018-07-28T11:48:47.120Z,28.80
2018-07-28T11:51:15.827Z,28.90
2018-07-28T11:53:47.338Z,29.30
2018-07-28T11:56:16.238Z,29.70
2018-07-28T11:58:44.821Z,29.90
2018-07-28T12:01:13.813Z,30.40
2018-07-28T12:03:42.327Z,30.50
2018-07-28T12:06:11.001Z,30.70
2018-07-28T12:08:39.541Z,30.90
2018-07-28T12:11:08.282Z,31.20
2018-07-28T12:13:36.823Z,31.40
2018-07-28T12:16:05.933Z,31.50
2018-07-28T12:18:34.530Z,31.60
2018-07-28T12:21:03.283Z,31.70
2018-07-28T12:23:31.835Z,31.60
2018-07-28T12:26:00.561Z,31.20
2018-07-28T12:28:29.065Z,31.00
2018-07-28T12:30:57.790Z,30.80
2018-07-28T12:33:26.277Z,31.10
2018-07-28T12:35:55.070Z,31.30
2018-07-28T12:38:23.661Z,31.70
2018-07-28T12:40:52.375Z,31.70
2018-07-28T12:43:20.895Z,32.00
2018-07-28T12:45:49.587Z,31.90
2018-07-28T12:48:18.155Z,32.10
2018-07-28T12:50:46.855Z,31.90
2018-07-28T12:53:15.402Z,31.40
2018-07-28T12:55:44.163Z,31.10
2018-07-28T12:58:12.837Z,30.80
2018-07-28T13:00:41.548Z,30.60
2018-07-28T13:03:10.040Z,30.30
2018-07-28T13:05:38.725Z,30.10
2018-07-28T13:08:07.280Z,30.00
2018-07-28T13:10:36.066Z,29.80
2018-07-28T13:13:04.632Z,29.70
2018-07-28T13:15:33.470Z,29.80
2018-07-28T13:18:02.091Z,30.00
2018-07-28T13:20:30.880Z,30.30
2018-07-28T13:22:59.423Z,30.80
2018-07-28T13:25:28.152Z,31.30
2018-07-28T13:27:56.680Z,31.70
2018-07-28T13:30:25.324Z,31.80
2018-07-28T13:35:22.091Z,31.90
2018-07-28T13:37:50.786Z,32.00
2018-07-28T13:40:19.314Z,31.90
2018-07-28T13:42:48.072Z,31.90
2018-07-28T13:45:16.587Z,31.60
2018-07-28T13:47:45.364Z,31.30
2018-07-28T13:50:13.807Z,31.00
2018-07-28T13:52:42.472Z,30.90
2018-07-28T13:55:11.073Z,30.60
2018-07-28T13:57:39.920Z,30.70
2018-07-28T14:00:08.588Z,30.90
2018-07-28T14:02:37.261Z,31.20
2018-07-28T14:05:05.868Z,31.20
2018-07-28T14:07:34.593Z,31.10
2018-07-28T14:10:03.122Z,31.30
2018-07-28T14:12:31.845Z,31.20
2018-07-28T14:15:00.479Z,31.30
2018-07-28T14:17:29.026Z,31.10
2018-07-28T14:19:57.585Z,31.00
2018-07-28T14:22:26.311Z,30.90
2018-07-28T14:24:55.070Z,30.90
2018-07-28T14:27:23.834Z,31.10
2018-07-28T14:29:52.493Z,31.00
2018-07-28T14:32:21.229Z,31.00
2018-07-28T14:34:49.796Z,30.90
2018-07-28T14:37:18.554Z,30.70
2018-07-28T14:42:15.419Z,30.60
2018-07-28T14:44:44.021Z,30.50
2018-07-28T14:47:12.700Z,30.40
2018-07-28T14:49:41.251Z,30.30
2018-07-28T14:52:09.993Z,30.30
2018-07-28T14:54:38.515Z,30.30
2018-07-28T14:57:07.265Z,30.30
2018-07-28T14:59:35.812Z,30.20
2018-07-28T15:02:04.624Z,30.10
2018-07-28T15:04:33.230Z,30.10
2018-07-28T15:07:01.975Z,30.10
2018-07-28T15:09:30.623Z,30.00
2018-07-28T15:11:59.417Z,29.90
2018-07-28T15:14:27.971Z,29.80
2018-07-28T15:16:56.719Z,29.70
2018-07-28T15:19:25.294Z,29.60
2018-07-28T15:21:53.893Z,29.70
2018-07-28T15:24:22.558Z,29.70
2018-07-28T15:26:51.270Z,29.70
2018-07-28T15:29:19.855Z,29.70
2018-07-28T15:31:48.576Z,29.70
2018-07-28T15:34:17.110Z,29.70
2018-07-28T15:36:45.839Z,29.70
2018-07-28T15:39:14.359Z,29.70
2018-07-28T15:41:43.032Z,29.80
2018-07-28T15:44:11.551Z,29.70
2018-07-28T15:46:40.132Z,29.80
2018-07-28T15:49:08.733Z,29.70
2018-07-28T15:51:37.474Z,29.70
2018-07-28T15:54:06.202Z,29.70
2018-07-28T15:56:34.988Z,29.70
2018-07-28T15:59:03.587Z,29.70
2018-07-28T16:01:32.323Z,29.70
2018-07-28T16:04:00.898Z,29.70
2018-07-28T16:06:29.647Z,29.60
2018-07-28T16:08:58.159Z,29.60
2018-07-28T16:11:26.886Z,29.50
2018-07-28T16:18:52.007Z,29.40
2018-07-28T16:21:20.724Z,29.30
2018-07-28T16:23:49.248Z,29.10
2018-07-28T16:26:17.883Z,29.10
2018-07-28T16:28:46.450Z,29.00
2018-07-28T16:31:15.148Z,29.00
2018-07-28T16:33:43.667Z,28.90
2018-07-28T16:36:12.373Z,28.90
2018-07-28T16:38:41.061Z,28.80
2018-07-28T16:41:16.319Z,28.90
2018-07-28T16:43:44.853Z,28.80
2018-07-28T16:46:13.556Z,28.90
2018-07-28T16:48:42.103Z,28.90
2018-07-28T16:51:10.854Z,28.80
2018-07-28T16:53:39.380Z,28.80
2018-07-28T16:56:08.144Z,28.70
2018-07-28T16:58:36.686Z,28.80
2018-07-28T17:01:05.418Z,28.80
2018-07-28T17:03:34.001Z,28.70
2018-07-28T17:06:02.934Z,28.60
2018-07-28T17:08:31.525Z,28.60
2018-07-28T17:11:00.098Z,28.50
2018-07-28T17:13:28.702Z,28.50
2018-07-28T17:15:57.490Z,28.40
2018-07-28T17:18:26.034Z,28.40
2018-07-28T17:20:54.771Z,28.40
2018-07-28T17:23:23.289Z,28.30
2018-07-28T17:25:52.034Z,28.30
2018-07-28T17:28:20.569Z,28.30
2018-07-28T17:30:49.365Z,28.20
2018-07-28T17:33:17.869Z,28.20
2018-07-28T17:35:46.538Z,28.20
2018-07-28T17:38:15.094Z,28.00
2018-07-28T17:40:43.795Z,27.90
2018-07-28T17:43:12.426Z,27.90
2018-07-28T17:45:41.171Z,27.80
2018-07-28T17:48:09.747Z,27.70
2018-07-28T17:50:38.488Z,27.70
2018-07-28T17:53:07.152Z,27.60
2018-07-28T17:55:35.860Z,27.60
2018-07-28T17:58:04.476Z,27.50
2018-07-28T18:00:33.190Z,27.40
2018-07-28T18:03:01.730Z,27.40
2018-07-28T18:05:30.488Z,27.30
2018-07-28T18:07:59.001Z,27.20
2018-07-28T18:12:55.920Z,27.20
2018-07-28T18:15:24.629Z,27.10
2018-07-28T18:17:53.146Z,27.10
2018-07-28T18:20:21.919Z,27.00
2018-07-28T18:22:50.775Z,26.90
2018-07-28T18:25:19.514Z,26.80
2018-07-28T18:27:48.068Z,26.80
2018-07-28T18:30:16.751Z,26.70
2018-07-28T18:32:45.301Z,26.60
2018-07-28T18:35:14.005Z,26.60
2018-07-28T18:37:42.532Z,26.50
2018-07-28T18:40:11.212Z,26.40
2018-07-28T18:42:39.717Z,26.40
2018-07-28T18:45:08.562Z,26.30
2018-07-28T18:47:37.133Z,26.30
2018-07-28T18:50:06.712Z,26.20
2018-07-28T18:52:35.243Z,26.20
2018-07-28T18:55:04.065Z,26.20
2018-07-28T18:57:32.562Z,26.20
2018-07-28T19:00:01.311Z,26.20
2018-07-28T19:02:29.882Z,26.20
2018-07-28T19:04:58.614Z,26.10
2018-07-28T19:07:27.184Z,26.00
2018-07-28T19:09:55.888Z,25.90
2018-07-28T19:12:29.825Z,25.80
2018-07-28T19:14:58.606Z,25.70
2018-07-28T19:17:32.403Z,25.70
2018-07-28T19:20:01.159Z,25.60
2018-07-28T19:22:34.981Z,25.60
2018-07-28T19:25:03.850Z,25.50
2018-07-28T19:27:32.392Z,25.40
2018-07-28T19:30:01.178Z,25.40
2018-07-28T19:32:29.775Z,25.40
2018-07-28T19:34:58.500Z,25.30
2018-07-28T19:37:27.819Z,25.30
2018-07-28T19:39:56.605Z,25.20
2018-07-28T19:42:30.395Z,25.10
2018-07-28T19:44:59.112Z,25.10
2018-07-28T19:47:27.658Z,25.00
2018-07-28T19:49:56.382Z,25.00
2018-07-28T19:52:24.895Z,25.00
2018-07-28T19:54:53.636Z,24.90
2018-07-28T19:57:22.186Z,24.80
2018-07-28T19:59:50.864Z,24.90
2018-07-28T20:02:19.474Z,24.80
2018-07-28T20:04:48.196Z,24.70
2018-07-28T20:07:17.439Z,24.70
2018-07-28T20:09:46.596Z,24.60
2018-07-28T20:12:15.139Z,24.50
2018-07-28T20:14:43.880Z,24.50
2018-07-28T20:17:12.506Z,24.50
2018-07-28T20:19:41.269Z,24.40
2018-07-28T20:22:09.757Z,24.30
2018-07-28T20:24:38.587Z,24.30
2018-07-28T20:27:07.161Z,24.30
2018-07-28T20:29:35.868Z,24.30
2018-07-28T20:32:04.437Z,24.20
2018-07-28T20:34:33.168Z,24.10
2018-07-28T20:39:30.097Z,24.10
2018-07-28T20:41:58.649Z,24.00
2018-07-28T20:44:27.421Z,24.00
2018-07-28T20:46:56.153Z,24.00
2018-07-28T20:49:24.871Z,24.00
2018-07-28T20:51:53.450Z,24.00
2018-07-28T20:54:22.205Z,23.90
2018-07-28T20:56:50.765Z,23.90
2018-07-28T20:59:19.524Z,23.90
2018-07-28T21:01:48.092Z,23.90
2018-07-28T21:04:16.747Z,23.90
2018-07-28T21:06:45.345Z,23.80
2018-07-28T21:09:14.134Z,23.80
2018-07-28T21:11:42.708Z,23.70
2018-07-28T21:14:11.481Z,23.60
2018-07-28T21:16:40.174Z,23.60
2018-07-28T21:19:08.904Z,23.50
2018-07-28T21:21:37.617Z,23.50
2018-07-28T21:24:06.455Z,23.40
2018-07-28T21:26:35.056Z,23.40
2018-07-28T21:29:03.920Z,23.50
2018-07-28T21:31:32.479Z,23.40
2018-07-28T21:34:01.161Z,23.40
2018-07-28T21:36:29.677Z,23.30
2018-07-28T21:38:58.304Z,23.30
2018-07-28T21:41:26.919Z,23.30
2018-07-28T21:43:55.575Z,23.30
2018-07-28T21:46:24.107Z,23.30
2018-07-28T21:48:52.819Z,23.30
2018-07-28T21:51:21.419Z,23.30
2018-07-28T21:53:50.171Z,23.20
2018-07-28T21:56:22.896Z,23.20
2018-07-28T21:58:52.026Z,23.10
2018-07-28T22:01:20.694Z,23.10
2018-07-28T22:03:49.397Z,23.00
2018-07-28T22:06:17.933Z,23.00
2018-07-28T22:08:46.660Z,23.00
2018-07-28T22:11:15.214Z,23.00
2018-07-28T22:13:43.883Z,22.90
2018-07-28T22:16:12.427Z,22.90
2018-07-28T22:18:41.189Z,22.90
2018-07-28T22:21:11.070Z,22.90
2018-07-28T22:23:40.002Z,22.90
2018-07-28T22:26:08.600Z,22.80
2018-07-28T22:28:37.533Z,22.80
2018-07-28T22:31:06.155Z,22.90
2018-07-28T22:33:34.953Z,22.80
2018-07-28T22:36:03.528Z,22.80
2018-07-28T22:38:32.244Z,22.70
2018-07-28T22:41:00.861Z,22.70
2018-07-28T22:43:29.478Z,22.80
2018-07-28T22:45:58.128Z,22.70
2018-07-28T22:48:26.879Z,22.70
2018-07-28T22:50:55.463Z,22.60
2018-07-28T22:53:24.200Z,22.60
2018-07-28T22:55:52.763Z,22.60
2018-07-28T22:58:21.527Z,22.60
2018-07-28T23:00:50.064Z,22.70
2018-07-28T23:03:18.779Z,22.70
2018-07-28T23:05:47.385Z,22.60
2018-07-28T23:08:16.086Z,22.60
2018-07-28T23:10:44.618Z,22.50
2018-07-28T23:13:13.269Z,22.50
2018-07-28T23:15:41.751Z,22.50
2018-07-28T23:18:10.468Z,22.40
2018-07-28T23:20:38.978Z,22.40
2018-07-28T23:23:07.752Z,22.40
2018-07-28T23:25:36.294Z,22.30
2018-07-28T23:28:05.078Z,22.30
2018-07-28T23:30:33.645Z,22.20
2018-07-28T23:33:02.293Z,22.20
2018-07-28T23:35:30.834Z,22.20
2018-07-28T23:37:59.498Z,22.20
2018-07-28T23:40:28.008Z,22.20
2018-07-28T23:42:56.771Z,22.20
2018-07-28T23:45:25.331Z,22.10
2018-07-28T23:47:54.039Z,22.10
2018-07-28T23:50:22.546Z,22.00
2018-07-28T23:52:51.158Z,22.00
2018-07-28T23:55:19.698Z,22.00
2018-07-28T23:57:48.395Z,22.00
